Time;durP1;ratioP1;P1;durP2;ratioP2;P2;SDS_P1;SDS_P2;PMS_P1;PMS_P2;Temp;Humidity;BMP_temperature;BMP_pressure;BME280_temperature;BME280_humidity;BME280_pressure;Samples;Min_cycle;Max_cycle;Signal;HPM_P1;HPM_P2
2022/05/23 00:00:26;;;;;;;7.90;2.30;;;;;;;;;;5086778;28;20139;-80
2022/05/23 00:02:53;;;;;;;5.85;2.00;;;;;;;;;;5068839;28;20060;-80
2022/05/23 00:05:19;;;;;;;8.10;2.30;;;;;;;;;;5064912;28;20595;-80
2022/05/23 00:07:47;;;;;;;9.50;2.67;;;;;;;;;;5059104;28;20053;-80
2022/05/23 00:10:15;;;;;;;7.60;2.20;;;;;;;;;;5084239;28;20033;-80
2022/05/23 00:12:42;;;;;;;7.90;2.72;;;;;;;;;;5066472;28;20065;-80
2022/05/23 00:15:09;;;;;;;5.68;2.35;;;;;;;;;;5066564;28;20583;-80
2022/05/23 00:17:38;;;;;;;7.20;2.55;;;;;;;;;;5068289;28;20059;-79
2022/05/23 00:20:07;;;;;;;12.23;2.92;;;;;;;;;;5088816;28;20168;-80
2022/05/23 00:22:33;;;;;;;12.73;2.78;;;;;;;;;;5064542;28;20340;-80
2022/05/23 00:24:59;;;;;;;5.35;2.58;;;;;;;;;;5084400;28;20052;-80
2022/05/23 00:27:26;;;;;;;7.90;2.75;;;;;;;;;;5089832;28;20563;-80
2022/05/23 00:29:53;;;;;;;8.43;2.40;;;;;;;;;;5068042;28;20440;-80
2022/05/23 00:35:20;;;;;;;7.00;2.40;;;;;;;;;;5089124;28;20143;-81
2022/05/23 00:37:50;;;;;;;5.78;2.28;;;;;;;;;;5072849;28;20045;-81
2022/05/23 00:40:16;;;;;;;9.82;2.70;;;;;;;;;;5070879;28;20052;-80
2022/05/23 00:45:28;;;;;;;9.27;2.30;;;;;;;;;;5086462;28;20523;-80
2022/05/23 00:47:55;;;;;;;6.45;2.45;;;;;;;;;;5063486;28;20172;-80
2022/05/23 00:50:21;;;;;;;6.75;2.30;;;;;;;;;;5085607;28;20405;-80
2022/05/23 00:52:52;;;;;;;6.90;2.10;;;;;;;;;;5066796;28;20053;-80
2022/05/23 00:55:47;;;;;;;6.30;2.10;;;;;;;;;;5069552;28;20056;-80
2022/05/23 00:58:19;;;;;;;4.45;2.10;;;;;;;;;;5067359;28;20052;-80
2022/05/23 01:00:45;;;;;;;5.55;2.03;;;;;;;;;;5070675;28;20126;-80
2022/05/23 01:03:14;;;;;;;7.60;2.45;;;;;;;;;;5067462;28;20056;-81
2022/05/23 01:05:40;;;;;;;9.75;3.00;;;;;;;;;;5070877;28;20113;-80
2022/05/23 01:08:07;;;;;;;7.50;2.45;;;;;;;;;;5068738;28;20136;-80
2022/05/23 01:10:35;;;;;;;10.65;2.50;;;;;;;;;;5070605;28;20120;-80
2022/05/23 01:13:01;;;;;;;6.68;2.50;;;;;;;;;;5087974;28;20064;-80
2022/05/23 01:15:28;;;;;;;7.10;2.60;;;;;;;;;;5070234;28;20052;-81
2022/05/23 01:17:55;;;;;;;5.35;2.25;;;;;;;;;;5087176;28;20072;-79
2022/05/23 01:20:22;;;;;;;5.18;2.67;;;;;;;;;;5084535;28;20058;-80
2022/05/23 01:23:07;;;;;;;7.90;2.60;;;;;;;;;;5069982;28;20059;-81
2022/05/23 01:25:35;;;;;;;10.65;2.70;;;;;;;;;;5070203;28;20080;-80
2022/05/23 01:28:02;;;;;;;6.45;2.97;;;;;;;;;;5054855;28;20056;-78
2022/05/23 01:30:29;;;;;;;8.35;2.53;;;;;;;;;;5069457;28;20942;-78
2022/05/23 01:32:55;;;;;;;6.93;2.78;;;;;;;;;;5075706;28;20118;-77
2022/05/23 01:35:21;;;;;;;8.40;2.30;;;;;;;;;;5088303;28;20056;-78
2022/05/23 01:37:48;;;;;;;10.38;2.60;;;;;;;;;;5068090;28;20052;-78
2022/05/23 01:40:16;;;;;;;7.65;2.90;;;;;;;;;;5087422;28;20052;-78
2022/05/23 01:42:42;;;;;;;5.80;2.35;;;;;;;;;;5087147;28;20143;-78
2022/05/23 01:45:09;;;;;;;7.38;2.90;;;;;;;;;;5083251;28;20056;-80
2022/05/23 01:47:36;;;;;;;7.03;2.55;;;;;;;;;;5069659;28;20095;-80
2022/05/23 01:50:02;;;;;;;5.50;2.63;;;;;;;;;;5044169;28;20047;-78
2022/05/23 01:52:28;;;;;;;5.72;2.63;;;;;;;;;;5068757;28;20063;-78
2022/05/23 01:54:55;;;;;;;6.30;2.80;;;;;;;;;;5086216;28;20617;-78
2022/05/23 01:57:21;;;;;;;7.85;2.60;;;;;;;;;;5068818;28;20063;-78
2022/05/23 02:02:32;;;;;;;6.88;2.55;;;;;;;;;;5078192;28;20795;-78
2022/05/23 02:04:59;;;;;;;8.90;3.08;;;;;;;;;;5058183;28;20049;-78
2022/05/23 02:07:26;;;;;;;6.95;2.95;;;;;;;;;;5085782;28;20139;-78
2022/05/23 02:09:52;;;;;;;8.50;3.03;;;;;;;;;;5061295;28;20057;-80
2022/05/23 02:12:18;;;;;;;8.80;2.88;;;;;;;;;;5085393;28;20079;-80
2022/05/23 02:14:46;;;;;;;10.00;2.95;;;;;;;;;;5067233;28;20057;-80
2022/05/23 02:17:12;;;;;;;9.75;3.20;;;;;;;;;;5060672;28;20533;-80
2022/05/23 02:19:39;;;;;;;11.90;3.40;;;;;;;;;;5059635;28;20148;-80
2022/05/23 02:22:05;;;;;;;5.88;2.65;;;;;;;;;;5057009;28;20914;-80
2022/05/23 02:24:32;;;;;;;6.78;3.00;;;;;;;;;;5078314;28;20807;-81
2022/05/23 02:26:58;;;;;;;7.40;2.85;;;;;;;;;;5065529;28;20083;-80
2022/05/23 02:29:25;;;;;;;8.55;2.80;;;;;;;;;;5076845;28;20067;-80
2022/05/23 02:31:51;;;;;;;8.57;3.40;;;;;;;;;;5083202;28;20086;-80
2022/05/23 02:34:18;;;;;;;8.48;2.80;;;;;;;;;;5062349;28;20059;-78
2022/05/23 02:36:45;;;;;;;7.03;2.97;;;;;;;;;;5057333;28;20382;-79
2022/05/23 02:39:12;;;;;;;7.13;3.10;;;;;;;;;;5084888;28;20088;-78
2022/05/23 02:41:38;;;;;;;6.63;2.85;;;;;;;;;;5067058;28;20057;-78
2022/05/23 02:44:05;;;;;;;7.55;3.03;;;;;;;;;;5083327;28;20052;-80
2022/05/23 02:46:32;;;;;;;8.05;3.22;;;;;;;;;;5059459;28;20067;-79
2022/05/23 02:48:59;;;;;;;9.30;3.33;;;;;;;;;;5061781;28;20056;-80
2022/05/23 02:51:25;;;;;;;8.98;3.13;;;;;;;;;;5085699;28;20056;-80
2022/05/23 02:53:52;;;;;;;6.63;2.97;;;;;;;;;;5062890;28;20111;-77
2022/05/23 02:56:18;;;;;;;8.68;3.33;;;;;;;;;;5065095;28;20041;-77
2022/05/23 02:58:44;;;;;;;7.38;3.20;;;;;;;;;;5060115;28;20151;-77
2022/05/23 03:01:11;;;;;;;6.88;3.13;;;;;;;;;;5061385;28;20056;-81
2022/05/23 03:03:39;;;;;;;8.30;3.42;;;;;;;;;;5056011;28;20147;-81
2022/05/23 03:06:06;;;;;;;6.95;3.10;;;;;;;;;;5074064;28;20067;-80
2022/05/23 03:08:32;;;;;;;8.85;3.38;;;;;;;;;;5064339;28;20057;-80
2022/05/23 03:11:00;;;;;;;7.90;3.10;;;;;;;;;;5066074;28;20053;-78
2022/05/23 03:13:27;;;;;;;7.47;3.28;;;;;;;;;;5060370;28;20053;-77
2022/05/23 03:15:53;;;;;;;7.60;3.65;;;;;;;;;;5060073;28;20060;-80
2022/05/23 03:18:20;;;;;;;10.43;3.20;;;;;;;;;;5081233;28;20657;-80
2022/05/23 03:20:46;;;;;;;8.85;3.65;;;;;;;;;;5086541;28;20116;-80
2022/05/23 03:28:43;;;;;;;6.63;3.40;;;;;;;;;;5079268;28;20583;-80
2022/05/23 03:31:10;;;;;;;10.07;3.65;;;;;;;;;;5068540;28;20062;-80
2022/05/23 03:33:36;;;;;;;9.35;3.38;;;;;;;;;;5068473;28;20870;-80
2022/05/23 03:36:03;;;;;;;7.45;3.80;;;;;;;;;;5067654;28;20056;-80
2022/05/23 03:38:29;;;;;;;13.68;3.83;;;;;;;;;;5065656;28;20131;-80
2022/05/23 03:40:55;;;;;;;7.57;3.28;;;;;;;;;;5066191;28;20113;-80
2022/05/23 03:43:22;;;;;;;8.40;4.22;;;;;;;;;;5076512;28;20132;-80
2022/05/23 03:45:48;;;;;;;6.28;3.65;;;;;;;;;;5059111;28;20135;-80
2022/05/23 03:48:15;;;;;;;6.07;3.50;;;;;;;;;;5057551;28;20136;-80
2022/05/23 03:50:43;;;;;;;8.05;3.72;;;;;;;;;;5066436;28;20135;-80
2022/05/23 03:53:09;;;;;;;9.25;4.05;;;;;;;;;;5070884;28;20497;-80
2022/05/23 03:55:35;;;;;;;8.25;3.67;;;;;;;;;;5086071;28;20057;-80
2022/05/23 03:58:05;;;;;;;8.23;3.83;;;;;;;;;;5072362;28;20163;-80
2022/05/23 04:00:31;;;;;;;8.77;3.60;;;;;;;;;;5090673;28;20058;-80
2022/05/23 04:02:57;;;;;;;6.50;3.78;;;;;;;;;;5066157;28;20155;-80
2022/05/23 04:05:25;;;;;;;8.18;3.97;;;;;;;;;;5073438;28;20052;-80
2022/05/23 04:07:51;;;;;;;7.57;3.88;;;;;;;;;;5062477;28;20064;-81
2022/05/23 04:10:19;;;;;;;8.38;3.70;;;;;;;;;;5054185;28;20041;-80
2022/05/23 04:12:45;;;;;;;10.52;4.00;;;;;;;;;;5063724;28;20933;-77
2022/05/23 04:15:11;;;;;;;8.35;3.67;;;;;;;;;;5065168;28;20052;-78
2022/05/23 04:17:38;;;;;;;6.63;3.85;;;;;;;;;;5062666;28;20835;-78
2022/05/23 04:20:08;;;;;;;10.25;4.20;;;;;;;;;;5072047;28;20762;-77
2022/05/23 04:22:35;;;;;;;8.35;3.55;;;;;;;;;;5067402;28;20049;-80
2022/05/23 04:25:02;;;;;;;9.23;4.32;;;;;;;;;;5073125;28;20543;-80
2022/05/23 04:27:29;;;;;;;7.15;3.63;;;;;;;;;;5074247;28;20060;-79
2022/05/23 04:29:55;;;;;;;8.65;3.60;;;;;;;;;;5072852;28;20080;-80
2022/05/23 04:35:18;;;;;;;7.28;3.70;;;;;;;;;;5014921;28;20101;-78
2022/05/23 04:37:45;;;;;;;7.07;3.95;;;;;;;;;;5057146;28;20088;-79
2022/05/23 04:40:13;;;;;;;8.23;3.65;;;;;;;;;;5062565;28;20538;-79
2022/05/23 04:42:40;;;;;;;8.27;3.80;;;;;;;;;;5069985;28;20057;-78
2022/05/23 04:45:07;;;;;;;9.60;4.28;;;;;;;;;;5086051;28;20054;-78
2022/05/23 04:50:18;;;;;;;9.38;4.60;;;;;;;;;;5084309;28;20062;-79
2022/05/23 04:52:48;;;;;;;13.75;4.40;;;;;;;;;;5090234;28;20456;-79
2022/05/23 04:55:15;;;;;;;10.30;4.50;;;;;;;;;;5056079;28;20146;-78
2022/05/23 04:57:41;;;;;;;9.38;4.50;;;;;;;;;;5072740;28;20135;-78
2022/05/23 05:00:09;;;;;;;7.20;4.53;;;;;;;;;;5092766;28;20143;-79
2022/05/23 05:02:36;;;;;;;11.05;4.75;;;;;;;;;;5073131;28;20052;-79
2022/05/23 05:05:03;;;;;;;9.32;5.10;;;;;;;;;;5068607;28;20052;-78
2022/05/23 05:07:30;;;;;;;9.30;4.93;;;;;;;;;;5087899;28;20502;-79
2022/05/23 05:09:56;;;;;;;12.50;4.78;;;;;;;;;;5079117;28;20134;-79
2022/05/23 05:12:23;;;;;;;10.50;4.75;;;;;;;;;;5087218;28;20044;-79
2022/05/23 05:14:49;;;;;;;9.73;4.97;;;;;;;;;;5083846;28;20091;-79
2022/05/23 05:17:15;;;;;;;8.45;4.95;;;;;;;;;;5058310;28;20543;-79
2022/05/23 05:19:42;;;;;;;11.23;5.28;;;;;;;;;;5060566;28;20122;-79
2022/05/23 05:22:08;;;;;;;9.88;4.78;;;;;;;;;;5068773;28;20148;-79
2022/05/23 05:24:35;;;;;;;8.85;5.10;;;;;;;;;;5084172;28;20329;-79
2022/05/23 05:27:02;;;;;;;9.35;6.00;;;;;;;;;;5067987;28;20516;-80
2022/05/23 05:29:28;;;;;;;9.55;5.10;;;;;;;;;;5074360;28;20599;-79
2022/05/23 05:31:59;;;;;;;9.85;5.30;;;;;;;;;;5075917;28;20663;-79
2022/05/23 05:34:37;;;;;;;8.38;5.25;;;;;;;;;;5067797;28;20068;-79
2022/05/23 05:37:10;;;;;;;10.07;5.35;;;;;;;;;;5086165;28;20083;-80
2022/05/23 05:39:38;;;;;;;10.43;5.40;;;;;;;;;;5088982;28;20057;-79
2022/05/23 05:42:09;;;;;;;9.13;5.25;;;;;;;;;;5060590;28;20080;-80
2022/05/23 05:44:37;;;;;;;10.40;5.20;;;;;;;;;;5067578;28;20136;-79
2022/05/23 05:47:05;;;;;;;12.18;6.00;;;;;;;;;;5086808;28;20051;-79
2022/05/23 05:49:52;;;;;;;9.63;4.93;;;;;;;;;;5078163;28;20064;-79
2022/05/23 05:52:21;;;;;;;15.00;6.10;;;;;;;;;;5058782;28;20064;-80
2022/05/23 05:54:48;;;;;;;11.45;5.35;;;;;;;;;;5068681;28;20052;-79
2022/05/23 05:57:14;;;;;;;10.68;5.85;;;;;;;;;;5084203;28;20048;-79
2022/05/23 05:59:41;;;;;;;9.20;5.32;;;;;;;;;;5062621;28;20603;-79
2022/05/23 06:02:10;;;;;;;13.70;6.30;;;;;;;;;;5067049;28;20048;-79
2022/05/23 06:04:36;;;;;;;11.27;5.82;;;;;;;;;;5062251;28;20061;-79
2022/05/23 06:12:34;;;;;;;9.93;5.57;;;;;;;;;;5083254;28;20062;-79
2022/05/23 06:15:00;;;;;;;12.23;5.80;;;;;;;;;;5063048;28;20805;-79
2022/05/23 06:17:26;;;;;;;11.30;5.75;;;;;;;;;;5069283;28;20052;-79
2022/05/23 06:19:53;;;;;;;10.88;5.82;;;;;;;;;;5079460;28;20456;-78
2022/05/23 06:22:19;;;;;;;12.43;5.78;;;;;;;;;;5067201;28;20053;-78
2022/05/23 06:24:45;;;;;;;13.35;6.57;;;;;;;;;;5068019;28;20527;-79
2022/05/23 06:27:12;;;;;;;12.23;6.15;;;;;;;;;;5080203;28;20089;-79
2022/05/23 06:29:41;;;;;;;13.63;6.50;;;;;;;;;;5085922;28;21401;-80
2022/05/23 06:32:07;;;;;;;12.05;6.10;;;;;;;;;;5066649;28;20155;-79
2022/05/23 06:34:34;;;;;;;12.23;5.80;;;;;;;;;;5053613;28;20083;-80
2022/05/23 06:37:00;;;;;;;12.38;6.40;;;;;;;;;;5069531;28;20036;-79
2022/05/23 06:39:26;;;;;;;15.32;6.18;;;;;;;;;;5070053;28;20048;-79
2022/05/23 06:41:53;;;;;;;13.43;6.05;;;;;;;;;;5070179;28;20169;-79
2022/05/23 06:44:19;;;;;;;13.50;6.07;;;;;;;;;;5068797;28;20091;-79
2022/05/23 06:46:46;;;;;;;13.52;6.15;;;;;;;;;;5069952;28;20067;-79
2022/05/23 06:49:13;;;;;;;15.38;6.30;;;;;;;;;;5069235;28;20064;-79
2022/05/23 06:51:48;;;;;;;12.07;5.63;;;;;;;;;;5068984;28;20063;-80
2022/05/23 06:54:18;;;;;;;11.55;5.78;;;;;;;;;;5068536;28;20439;-79
2022/05/23 06:56:45;;;;;;;13.30;5.88;;;;;;;;;;5072517;28;21333;-79
2022/05/23 06:59:13;;;;;;;7.97;6.00;;;;;;;;;;5065783;28;20143;-79
2022/05/23 07:01:39;;;;;;;10.43;6.30;;;;;;;;;;5066712;28;20155;-80
2022/05/23 07:04:06;;;;;;;11.25;6.10;;;;;;;;;;5070049;28;20044;-79
2022/05/23 07:14:41;;;;;;;11.48;6.25;;;;;;;;;;5070034;28;20053;-79
2022/05/23 07:17:07;;;;;;;12.23;6.30;;;;;;;;;;5070090;28;20167;-78
2022/05/23 07:19:37;;;;;;;14.98;6.95;;;;;;;;;;5070809;28;20059;-78
2022/05/23 07:22:04;;;;;;;11.07;6.05;;;;;;;;;;5072277;28;20059;-80
2022/05/23 07:24:31;;;;;;;13.45;6.30;;;;;;;;;;5088265;28;20101;-79
2022/05/23 07:26:58;;;;;;;10.85;5.93;;;;;;;;;;5070950;28;20109;-79
2022/05/23 07:29:25;;;;;;;12.45;6.63;;;;;;;;;;5092226;28;20867;-79
2022/05/23 07:31:52;;;;;;;12.63;6.47;;;;;;;;;;5066280;28;20053;-79
2022/05/23 07:34:18;;;;;;;16.35;6.47;;;;;;;;;;5092480;28;20067;-79
2022/05/23 07:36:46;;;;;;;13.50;6.00;;;;;;;;;;5075490;28;20371;-79
2022/05/23 07:39:12;;;;;;;11.52;5.72;;;;;;;;;;5087107;28;20080;-78
2022/05/23 07:41:39;;;;;;;12.38;6.07;;;;;;;;;;5055662;28;20125;-79
2022/05/23 07:44:07;;;;;;;10.52;5.38;;;;;;;;;;5067822;28;20048;-79
2022/05/23 07:46:34;;;;;;;11.77;6.20;;;;;;;;;;5092279;28;20056;-78
2022/05/23 07:49:01;;;;;;;8.75;5.43;;;;;;;;;;5075639;28;20052;-78
2022/05/23 07:51:32;;;;;;;12.33;6.17;;;;;;;;;;5070483;28;20072;-79
2022/05/23 08:02:33;;;;;;;9.70;5.72;;;;;;;;;;5031258;28;21442;-79
2022/05/23 08:04:59;;;;;;;8.88;5.65;;;;;;;;;;5044415;28;20168;-78
2022/05/23 08:07:29;;;;;;;10.23;6.00;;;;;;;;;;5076760;28;20091;-78
2022/05/23 08:09:56;;;;;;;9.55;5.40;;;;;;;;;;5066490;28;20076;-79
2022/05/23 08:12:22;;;;;;;12.02;5.93;;;;;;;;;;5055162;28;20097;-79
2022/05/23 08:14:48;;;;;;;10.18;5.90;;;;;;;;;;5072199;28;20108;-78
2022/05/23 08:17:16;;;;;;;12.20;5.88;;;;;;;;;;5057305;28;20140;-78
2022/05/23 08:19:42;;;;;;;13.93;6.28;;;;;;;;;;5070884;28;20092;-78
2022/05/23 08:22:09;;;;;;;8.70;6.15;;;;;;;;;;5073417;28;20053;-78
2022/05/23 08:24:36;;;;;;;11.27;7.22;;;;;;;;;;5091331;28;20056;-79
2022/05/23 08:27:02;;;;;;;11.60;6.65;;;;;;;;;;5096506;28;20104;-79
2022/05/23 08:29:31;;;;;;;13.75;6.32;;;;;;;;;;5079165;28;20056;-79
2022/05/23 08:31:58;;;;;;;10.23;6.90;;;;;;;;;;5077852;28;20547;-79
2022/05/23 08:34:24;;;;;;;12.07;6.43;;;;;;;;;;5078461;28;20067;-78
2022/05/23 08:36:52;;;;;;;14.70;6.55;;;;;;;;;;5079359;28;20052;-79
2022/05/23 08:39:19;;;;;;;11.23;6.80;;;;;;;;;;5065050;28;20083;-78
2022/05/23 08:41:47;;;;;;;12.27;6.38;;;;;;;;;;5080179;28;20140;-78
2022/05/23 08:44:22;;;;;;;10.43;6.25;;;;;;;;;;5084188;28;20076;-81
2022/05/23 08:46:57;;;;;;;10.88;5.68;;;;;;;;;;5088027;28;20136;-79
2022/05/23 08:49:45;;;;;;;8.45;5.00;;;;;;;;;;5087171;28;20116;-78
2022/05/23 08:52:21;;;;;;;10.27;6.25;;;;;;;;;;5081247;28;20106;-78
2022/05/23 08:54:54;;;;;;;9.30;5.45;;;;;;;;;;5070225;28;20887;-78
2022/05/23 08:57:30;;;;;;;9.38;5.43;;;;;;;;;;5060380;28;20052;-78
2022/05/23 09:00:00;;;;;;;9.07;5.60;;;;;;;;;;5073558;28;20056;-79
2022/05/23 09:02:32;;;;;;;9.13;5.33;;;;;;;;;;5069123;28;20061;-79
2022/05/23 09:05:02;;;;;;;8.38;5.10;;;;;;;;;;5056837;28;20284;-78
2022/05/23 09:07:28;;;;;;;9.93;5.78;;;;;;;;;;5067221;28;20059;-78
2022/05/23 09:09:57;;;;;;;12.32;5.70;;;;;;;;;;5049432;28;20383;-78
2022/05/23 09:12:24;;;;;;;12.77;5.55;;;;;;;;;;5045894;28;20452;-78
2022/05/23 09:14:50;;;;;;;10.10;5.40;;;;;;;;;;5079088;28;20565;-78
2022/05/23 09:17:25;;;;;;;9.95;5.85;;;;;;;;;;5058489;28;20743;-78
2022/05/23 09:19:55;;;;;;;9.90;5.50;;;;;;;;;;5066779;28;20519;-78
2022/05/23 09:22:43;;;;;;;10.63;5.93;;;;;;;;;;5074278;28;20059;-79
2022/05/23 09:25:12;;;;;;;10.77;6.32;;;;;;;;;;5076798;28;20061;-79
2022/05/23 09:27:44;;;;;;;10.63;6.00;;;;;;;;;;5068798;28;20140;-79
2022/05/23 09:30:15;;;;;;;12.32;5.93;;;;;;;;;;5087597;28;20060;-79
2022/05/23 09:33:00;;;;;;;9.55;5.20;;;;;;;;;;5066983;28;20091;-79
2022/05/23 09:35:42;;;;;;;9.13;6.03;;;;;;;;;;5091535;28;20057;-79
2022/05/23 09:38:23;;;;;;;11.45;6.03;;;;;;;;;;5072007;28;20144;-79
2022/05/23 09:40:50;;;;;;;10.23;5.90;;;;;;;;;;5067960;28;20084;-79
2022/05/23 09:49:26;;;;;;;10.85;6.90;;;;;;;;;;5025582;28;20060;-79
2022/05/23 09:51:54;;;;;;;13.70;6.47;;;;;;;;;;5068479;28;20060;-79
2022/05/23 09:54:24;;;;;;;11.93;5.72;;;;;;;;;;5067106;28;20065;-79
2022/05/23 09:56:51;;;;;;;10.65;4.78;;;;;;;;;;5081381;28;20594;-79
2022/05/23 09:59:23;;;;;;;8.40;5.40;;;;;;;;;;5069325;28;20056;-78
2022/05/23 10:01:50;;;;;;;9.95;5.63;;;;;;;;;;5076077;28;20061;-77
2022/05/23 10:04:18;;;;;;;15.80;5.65;;;;;;;;;;5062327;28;20131;-78
2022/05/23 10:06:50;;;;;;;11.38;5.88;;;;;;;;;;5066849;28;20128;-78
2022/05/23 10:09:22;;;;;;;11.07;5.95;;;;;;;;;;5048621;28;20049;-77
2022/05/23 10:11:54;;;;;;;13.13;6.25;;;;;;;;;;5074988;28;20157;-77
2022/05/23 10:14:22;;;;;;;9.68;6.60;;;;;;;;;;5049276;28;20160;-77
2022/05/23 10:16:58;;;;;;;10.40;6.50;;;;;;;;;;5072521;28;20128;-77
2022/05/23 10:19:28;;;;;;;9.82;6.20;;;;;;;;;;5062017;28;20057;-78
2022/05/23 10:22:07;;;;;;;13.40;6.30;;;;;;;;;;5066907;28;20044;-79
2022/05/23 10:24:35;;;;;;;13.20;7.45;;;;;;;;;;5069746;28;20529;-78
2022/05/23 10:27:06;;;;;;;12.00;7.57;;;;;;;;;;5065839;28;20054;-78
2022/05/23 10:29:39;;;;;;;12.73;7.55;;;;;;;;;;5082883;28;20053;-78
2022/05/23 10:32:11;;;;;;;11.75;7.78;;;;;;;;;;5064649;28;20052;-77
2022/05/23 10:34:42;;;;;;;15.13;8.43;;;;;;;;;;5071465;28;20147;-77
2022/05/23 10:37:15;;;;;;;15.98;8.45;;;;;;;;;;5084242;28;20048;-77
2022/05/23 10:42:47;;;;;;;12.35;7.40;;;;;;;;;;5080336;28;20063;-76
2022/05/23 10:45:38;;;;;;;19.42;9.13;;;;;;;;;;5024684;28;20284;-76
2022/05/23 10:48:20;;;;;;;17.30;9.43;;;;;;;;;;5078741;28;20159;-77
2022/05/23 10:50:50;;;;;;;13.23;9.48;;;;;;;;;;5046398;28;20049;-76
2022/05/23 10:53:37;;;;;;;14.82;8.20;;;;;;;;;;5067206;28;20052;-76
2022/05/23 10:56:20;;;;;;;12.30;8.38;;;;;;;;;;5067347;28;20118;-77
2022/05/23 10:58:51;;;;;;;14.40;8.85;;;;;;;;;;5065723;28;20053;-76
2022/05/23 11:01:36;;;;;;;16.17;9.60;;;;;;;;;;5076386;28;20059;-76
2022/05/23 11:04:21;;;;;;;16.75;9.00;;;;;;;;;;5061257;28;20164;-77
2022/05/23 11:07:02;;;;;;;15.43;8.82;;;;;;;;;;5059252;28;22489;-77
2022/05/23 11:09:31;;;;;;;13.18;8.35;;;;;;;;;;5053861;28;20534;-77
2022/05/23 11:12:07;;;;;;;18.20;8.80;;;;;;;;;;5062509;28;20053;-77
2022/05/23 11:14:45;;;;;;;12.63;7.97;;;;;;;;;;5078004;28;20133;-76
2022/05/23 11:17:32;;;;;;;12.95;7.38;;;;;;;;;;5057581;28;20106;-78
2022/05/23 11:20:10;;;;;;;11.93;7.00;;;;;;;;;;5062881;28;20660;-78
2022/05/23 11:22:45;;;;;;;12.07;7.68;;;;;;;;;;5059626;28;20060;-77
2022/05/23 11:25:16;;;;;;;12.05;7.40;;;;;;;;;;5049568;28;20061;-77
2022/05/23 11:36:04;;;;;;;10.70;7.25;;;;;;;;;;5077069;28;20053;-77
2022/05/23 11:38:30;;;;;;;11.38;7.63;;;;;;;;;;5049961;28;20165;-78
2022/05/23 11:41:04;;;;;;;13.35;8.38;;;;;;;;;;5068750;28;20099;-77
2022/05/23 11:43:31;;;;;;;14.05;7.97;;;;;;;;;;5066641;28;20053;-78
2022/05/23 11:45:59;;;;;;;12.32;8.10;;;;;;;;;;5029085;28;20545;-78
2022/05/23 11:48:29;;;;;;;13.40;7.75;;;;;;;;;;5061872;28;20053;-79
2022/05/23 11:51:06;;;;;;;12.95;7.72;;;;;;;;;;5051037;28;20061;-79
2022/05/23 11:53:34;;;;;;;15.18;8.18;;;;;;;;;;5078674;28;20053;-78
2022/05/23 11:56:03;;;;;;;11.07;7.80;;;;;;;;;;5051291;28;20041;-78
2022/05/23 11:58:38;;;;;;;13.57;7.60;;;;;;;;;;5071337;28;20074;-78
2022/05/23 12:01:05;;;;;;;12.55;7.25;;;;;;;;;;5063999;28;20049;-78
2022/05/23 12:03:55;;;;;;;12.25;6.63;;;;;;;;;;5046936;28;20131;-78
2022/05/23 12:06:22;;;;;;;10.40;6.30;;;;;;;;;;5036559;28;20056;-78
2022/05/23 12:09:09;;;;;;;10.88;5.97;;;;;;;;;;5049660;28;20127;-76
2022/05/23 12:11:40;;;;;;;9.27;5.78;;;;;;;;;;5060213;28;20128;-76
2022/05/23 12:14:25;;;;;;;11.27;6.07;;;;;;;;;;5072118;28;20139;-75
2022/05/23 12:16:54;;;;;;;10.65;5.90;;;;;;;;;;5075081;28;20103;-76
2022/05/23 12:19:21;;;;;;;9.70;5.50;;;;;;;;;;5067695;28;20978;-76
2022/05/23 12:21:50;;;;;;;9.05;5.38;;;;;;;;;;5050777;28;20052;-76
2022/05/23 12:24:27;;;;;;;8.07;5.30;;;;;;;;;;5071597;28;20504;-76
2022/05/23 12:27:29;;;;;;;12.88;6.28;;;;;;;;;;5074271;28;20056;-76
2022/05/23 12:30:14;;;;;;;9.00;6.18;;;;;;;;;;5063006;28;20152;-76
2022/05/23 12:32:48;;;;;;;9.95;5.90;;;;;;;;;;5077512;28;20064;-77
2022/05/23 12:35:16;;;;;;;11.88;7.03;;;;;;;;;;5071764;28;20682;-76
2022/05/23 12:37:57;;;;;;;10.70;6.60;;;;;;;;;;5060947;28;20311;-76
2022/05/23 12:40:29;;;;;;;10.32;6.30;;;;;;;;;;5072939;28;20129;-76
2022/05/23 12:43:24;;;;;;;12.00;6.55;;;;;;;;;;5083827;28;20135;-75
2022/05/23 12:46:15;;;;;;;11.68;6.65;;;;;;;;;;5049760;28;20052;-76
2022/05/23 12:48:59;;;;;;;11.07;6.60;;;;;;;;;;5080311;28;20053;-76
2022/05/23 12:51:38;;;;;;;10.25;6.25;;;;;;;;;;5064544;28;20060;-75
2022/05/23 12:54:04;;;;;;;10.90;6.78;;;;;;;;;;5077370;28;20131;-76
2022/05/23 12:56:36;;;;;;;12.98;7.20;;;;;;;;;;5068648;28;20168;-76
2022/05/23 12:59:12;;;;;;;12.27;6.35;;;;;;;;;;5083347;28;20135;-75
2022/05/23 13:01:43;;;;;;;10.95;7.05;;;;;;;;;;5079752;28;20056;-75
2022/05/23 13:04:12;;;;;;;10.88;6.57;;;;;;;;;;5077486;28;20401;-75
2022/05/23 13:06:50;;;;;;;9.60;7.03;;;;;;;;;;5059551;28;20188;-75
2022/05/23 13:09:18;;;;;;;9.95;6.53;;;;;;;;;;5075174;28;20497;-76
2022/05/23 13:11:48;;;;;;;13.85;6.47;;;;;;;;;;5073551;28;20051;-76
2022/05/23 13:14:14;;;;;;;14.65;6.65;;;;;;;;;;5068788;28;20049;-78
2022/05/23 13:16:50;;;;;;;13.25;7.65;;;;;;;;;;5065684;28;20090;-78
2022/05/23 13:22:05;;;;;;;12.57;7.07;;;;;;;;;;5067817;28;20055;-79
2022/05/23 13:27:25;;;;;;;15.45;8.52;;;;;;;;;;5073434;28;20072;-78
2022/05/23 13:29:56;;;;;;;12.48;7.90;;;;;;;;;;5065631;28;20538;-83
2022/05/23 13:32:23;;;;;;;13.73;8.18;;;;;;;;;;5058943;28;20808;-79
2022/05/23 13:34:50;;;;;;;17.13;8.25;;;;;;;;;;5059031;28;20599;-79
2022/05/23 13:37:24;;;;;;;14.77;8.55;;;;;;;;;;5066608;28;20139;-78
2022/05/23 13:39:50;;;;;;;14.88;8.77;;;;;;;;;;5084629;28;20052;-79
2022/05/23 13:42:21;;;;;;;13.45;8.88;;;;;;;;;;5078692;28;20095;-79
2022/05/23 13:44:48;;;;;;;12.70;9.00;;;;;;;;;;5081146;28;20060;-78
2022/05/23 13:47:18;;;;;;;13.98;9.32;;;;;;;;;;5065128;28;20048;-78
2022/05/23 13:49:53;;;;;;;15.35;9.80;;;;;;;;;;5056879;28;20049;-78
2022/05/23 13:52:28;;;;;;;12.07;9.65;;;;;;;;;;5070998;28;20080;-78
2022/05/23 13:54:59;;;;;;;16.10;10.65;;;;;;;;;;5051122;28;20053;-79
2022/05/23 13:57:28;;;;;;;17.27;10.95;;;;;;;;;;5058937;28;20501;-77
2022/05/23 13:59:54;;;;;;;15.65;11.10;;;;;;;;;;5049170;28;20488;-78
2022/05/23 14:02:23;;;;;;;15.73;11.10;;;;;;;;;;5083363;28;20057;-78
2022/05/23 14:04:52;;;;;;;18.08;11.15;;;;;;;;;;5084205;28;20056;-77
2022/05/23 14:07:20;;;;;;;16.85;12.00;;;;;;;;;;5075006;28;20727;-79
2022/05/23 14:09:48;;;;;;;18.40;11.82;;;;;;;;;;5077474;28;20056;-78
2022/05/23 14:12:21;;;;;;;20.58;11.73;;;;;;;;;;5074104;28;20143;-78
2022/05/23 14:14:52;;;;;;;31.27;13.38;;;;;;;;;;5082824;28;20053;-77
2022/05/23 14:17:26;;;;;;;19.75;11.38;;;;;;;;;;5049205;28;20569;-76
2022/05/23 14:19:54;;;;;;;16.88;11.52;;;;;;;;;;5063736;28;20059;-76
2022/05/23 14:22:30;;;;;;;14.57;10.30;;;;;;;;;;5076401;28;20052;-76
2022/05/23 14:24:59;;;;;;;16.90;10.45;;;;;;;;;;5069664;28;20443;-76
2022/05/23 14:27:31;;;;;;;15.40;9.30;;;;;;;;;;5079376;28;20049;-76
2022/05/23 14:30:10;;;;;;;14.48;9.10;;;;;;;;;;5075275;28;20192;-75
2022/05/23 14:32:36;;;;;;;15.75;9.48;;;;;;;;;;5073039;28;20049;-75
2022/05/23 14:35:10;;;;;;;16.65;9.13;;;;;;;;;;5076224;28;20057;-76
2022/05/23 14:37:39;;;;;;;19.98;10.43;;;;;;;;;;5056731;28;20059;-77
2022/05/23 14:40:07;;;;;;;14.18;10.90;;;;;;;;;;5063386;28;20596;-75
2022/05/23 14:42:36;;;;;;;16.02;11.13;;;;;;;;;;5065251;28;20139;-75
2022/05/23 14:45:18;;;;;;;17.93;11.30;;;;;;;;;;5065178;28;20064;-75
2022/05/23 14:47:54;;;;;;;19.48;12.23;;;;;;;;;;5081769;28;20148;-75
2022/05/23 14:50:27;;;;;;;20.27;12.10;;;;;;;;;;5067998;28;20087;-75
2022/05/23 14:55:43;;;;;;;17.83;12.70;;;;;;;;;;5074049;28;20059;-74
2022/05/23 15:00:59;;;;;;;20.05;14.05;;;;;;;;;;5072021;28;20144;-74
2022/05/23 15:03:33;;;;;;;26.45;14.07;;;;;;;;;;5082178;28;20542;-75
2022/05/23 15:05:59;;;;;;;21.17;13.15;;;;;;;;;;5071965;28;20052;-74
2022/05/23 15:08:25;;;;;;;18.35;11.88;;;;;;;;;;5073153;28;20065;-75
2022/05/23 15:10:52;;;;;;;18.40;13.48;;;;;;;;;;5080409;28;20058;-75
2022/05/23 15:13:20;;;;;;;20.38;13.32;;;;;;;;;;5079858;28;20072;-75
2022/05/23 15:15:46;;;;;;;19.23;13.73;;;;;;;;;;5069168;28;20247;-75
2022/05/23 15:18:14;;;;;;;21.05;12.77;;;;;;;;;;5055984;28;20060;-75
2022/05/23 15:20:40;;;;;;;19.17;12.93;;;;;;;;;;5080388;28;20049;-75
2022/05/23 15:23:07;;;;;;;20.33;12.98;;;;;;;;;;5067853;28;20262;-75
2022/05/23 15:25:33;;;;;;;19.25;12.82;;;;;;;;;;5064242;28;20122;-75
2022/05/23 15:28:00;;;;;;;16.65;12.43;;;;;;;;;;5064124;28;20052;-76
2022/05/23 15:30:29;;;;;;;20.63;13.40;;;;;;;;;;5072659;28;20596;-75
2022/05/23 15:32:57;;;;;;;20.45;12.80;;;;;;;;;;5052303;28;20135;-75
2022/05/23 15:35:24;;;;;;;20.05;13.43;;;;;;;;;;5082515;28;20098;-75
2022/05/23 15:37:51;;;;;;;18.45;13.50;;;;;;;;;;5063456;28;20058;-75
2022/05/23 15:40:18;;;;;;;22.58;13.82;;;;;;;;;;5081448;28;20099;-75
2022/05/23 15:42:47;;;;;;;20.20;14.35;;;;;;;;;;5059279;28;20742;-75
2022/05/23 15:45:16;;;;;;;21.27;14.98;;;;;;;;;;5051887;28;20134;-75
2022/05/23 15:47:42;;;;;;;20.77;15.63;;;;;;;;;;5069975;28;20049;-75
2022/05/23 15:50:10;;;;;;;21.27;15.02;;;;;;;;;;5079075;28;20152;-75
2022/05/23 15:52:37;;;;;;;24.10;16.20;;;;;;;;;;5079382;28;20143;-75
2022/05/23 15:55:04;;;;;;;22.17;16.02;;;;;;;;;;5083128;28;20044;-75
2022/05/23 15:57:33;;;;;;;24.45;16.20;;;;;;;;;;5081773;28;20139;-75